x

Tanner Bank - 121nm West Of San Diego, Ca (46047) Wave Buoy

5:50 - Tue 24th May 2016 All times are PDT. -7 hours from GMT.

  • Sig Wave height 3.0ft
  • Swell Direction
  • Peak Period 15s
  • Average Period 5s
  • Wind
    9mph, 11mph gusts
  • Sea Temp 62°f
  • Luft Temp 61°f
  • Sea Pressure 1017.6mb
  • Tanner Bank - 121nm West Of San Diego, Ca
  • Tanner Bank - 121nm West Of San Diego, Ca

More Historic Weather Station data

Upgrade to MSW Pro to gain access to the past 30 days of data for over 8000 Wavebouys and Weather Stations around the globe.

Join Pro

Comparision Forecast

View Surf forecast
   
Di 05/24 5:50 3ft 15s 5s 9 11 mph 1017.6mb 62f 61f
4:50 3ft 12s 5s 9 11 mph 1017.6mb 62f 61f
3:50 3.5ft 15s  -  11 13 mph 1017.6mb 62f 61f
2:50 3ft 6s 5s 9 11 mph 1017.8mb 62f 61f
1:50 3.5ft 15s 6s 7 9 mph 1018mb 62f 61f
12:50 3.5ft 6s 5s 7 9 mph 1018mb 62f 60f
11:50 3.5ft 6s 5s 9 11 mph 1017.8mb 61f 60f
10:50 3.5ft 6s 5s 11 13 mph 1017.1mb 61f 60f
9:50 3.5ft 6s 5s 11 13 mph 1016.7mb 61f 60f
8:50 3.5ft 5s 5s 13 18 mph 1016.3mb 61f 59f
7:50 3.5ft 6s 5s 13 16 mph 1015.9mb 61f 58f
6:50 3.5ft 6s 5s 13 18 mph 1015.3mb 61f 58f
5:50 4ft 6s 5s 13 16 mph 1014.7mb 61f 59f
4:50 4ft 6s 5s 13 16 mph 1014.4mb 61f 60f
3:50 4ft 7s 5s 16 18 mph 1014.3mb 62f 60f
2:50 4.5ft 6s 5s 13 16 mph 1014.3mb 62f 60f
1:50 4.5ft 6s 5s 18 22 mph 1014.6mb 61f 58f
12:50 5ft 6s 5s 16 20 mph 1014.8mb 61f 60f
Mo 05/23 11:50 5ft 6s 5s 20 25 mph 1014.6mb 61f 60f
10:50 5ft 6s 5s 18 22 mph 1014.8mb 61f 60f
9:50 4.5ft 7s 5s 22 25 mph 1014.5mb 61f 60f
8:50 5.5ft 6s 5s 20 22 mph 1014mb 61f 59f
7:50 5ft 6s 5s 22 29 mph 1013.6mb 61f 59f
6:50 5ft 7s 5s 18 22 mph 1013.7mb 61f 59f
5:50 5ft 7s 5s 22 25 mph 1013.8mb 61f 59f
4:50 5.5ft 7s 5s 20 22 mph 1013.9mb 61f 59f
3:50 6ft 7s 5s 20 25 mph 1014.3mb 61f 59f
2:50 6ft 6s 5s 20 25 mph 1014.7mb 61f 59f
1:50 5.5ft 7s 5s 20 25 mph 1014.9mb 61f 58f
12:50 5.5ft 7s 5s 20 25 mph 1015.2mb 61f 58f
11:50 6ft 7s 6s 20 22 mph 1015.7mb 61f 58f
10:50 5.5ft 7s 5s 20 25 mph 1015.6mb 61f 58f
9:50 5.5ft 7s 5s 20 22 mph 1015.5mb 61f 58f
8:50 6ft 6s 6s 20 22 mph 1015.4mb 61f 58f
7:50 5ft 7s 5s 20 25 mph 1015mb 61f 58f
6:50 6ft 6s 5s 20 22 mph 1014.9mb 61f 58f
5:50 5.5ft 6s 5s 20 25 mph 1014.6mb 61f 58f
4:50 6ft 7s 5s 22 25 mph 1014.6mb 61f 58f
3:50 6ft 6s  -  25 27 mph 1014.3mb 61f 58f
2:50 6ft 6s 5s 22 25 mph 1014.7mb 61f 58f
1:50 6ft 6s 5s 22 27 mph 1015mb 61f 58f
12:50 6ft 11s 5s 25 29 mph 1015.4mb 61f 58f
So 05/22 11:50 6ft 6s 5s 22 27 mph 1015.9mb 61f 59f
10:50 6ft 11s 6s 20 25 mph 1016.7mb 61f 59f
9:50 5.5ft 6s 5s 20 25 mph 1016.7mb 61f 59f
8:50 5.5ft 11s 5s 18 22 mph 1016.6mb 61f 59f
7:50 5ft 6s 5s 18 22 mph 1016.2mb 61f 58f
6:50 5.5ft 6s 5s 20 22 mph 1016.1mb 61f 59f
5:50 6ft 6s 5s 20 22 mph 1016.3mb 61f 59f
4:50 6ft 6s 5s 20 22 mph 1016.7mb 61f 59f
3:50 6ft 11s 5s 20 25 mph 1017.1mb 60f 59f
2:50 6.5ft 10s 6s 20 25 mph 1017.7mb 60f 59f
1:50 6ft 6s 6s 22 27 mph 1017.7mb 60f 58f
12:50 6ft 10s 6s 20 22 mph 1018.4mb 60f 58f
11:50 6ft 10s 6s 20 25 mph 1018.9mb 60f 58f
10:50 6ft 11s 6s 18 22 mph 1018.9mb 60f 58f
9:50 6ft 10s 6s 20 22 mph 1019.2mb 60f 58f
8:50 5.5ft 10s 6s 18 22 mph 1019mb 61f 58f
7:50 5.5ft 14s 6s 20 22 mph 1018.8mb 61f 58f
6:50 5ft 10s 6s 18 22 mph 1018.7mb 61f 58f
5:50 5.5ft 10s 6s 18 20 mph 1018.4mb 61f 58f
4:50 6ft 10s 6s 18 22 mph 1018.3mb 60f 58f
3:50 5.5ft 11s 6s 18 22 mph 1018.2mb 60f 58f
2:50 5.5ft 10s 6s 18 22 mph 1018.2mb 60f 58f
1:50 6ft 10s 6s 16 20 mph 1018.2mb 60f 58f
12:50 6ft 10s 6s 18 22 mph 1018.3mb 60f 58f
Sa 05/21 11:50 6ft 10s 6s 18 20 mph 1018.6mb 60f 59f
10:50 6ft 10s 6s 18 22 mph 1018.9mb 60f 59f
9:50 6ft 9s 6s 18 22 mph 1018.5mb 60f 59f
8:50 6ft 10s 6s 20 25 mph 1018.1mb 60f 59f
7:50 5.5ft 10s 6s 18 20 mph 1017.9mb 60f 59f
6:50 5ft 11s 6s 16 20 mph 1017.8mb 61f 60f
5:50 5.5ft 9s 6s 16 18 mph 1017.7mb 61f 59f
4:50 5.5ft 10s 7s 16 20 mph 1017.5mb 61f 59f
3:50 6ft 10s 7s 16 20 mph 1017.8mb 60f 59f
2:50 6ft 10s 7s 13 16 mph 1018mb 60f 59f
1:50 6ft 10s 7s 16 18 mph 1017.8mb 60f 58f
12:50 5.5ft 9s 7s 16 18 mph 1018mb 60f 58f
11:50 6ft 9s 7s 13 18 mph 1018mb 60f 58f
10:50 5.5ft 9s 6s 16 18 mph 1017.7mb 60f 58f
9:50 6ft 9s 7s 13 18 mph 1017.1mb 60f 58f
8:50 6ft 11s 7s 13 16 mph 1016.9mb 60f 58f
7:50 6ft 14s 7s 13 16 mph 1016.4mb 60f 58f
6:50 6.5ft 10s 7s 13 16 mph 1015.8mb 60f 58f
5:50 6.5ft 10s 7s 16 18 mph 1015.2mb 60f 58f
4:50 6ft 10s 7s 16 18 mph 1015.2mb 60f 58f
3:50 6.5ft 15s 7s 16 18 mph 1015.2mb 60f 58f
2:50 7ft 11s 7s 16 18 mph 1015.3mb 60f 58f
1:50 7.5ft 10s 7s 16 20 mph 1015.5mb 60f 58f